Terminal Aerodrome Forecast
Issued by NWS

Home | Current Version | Previous Version | Text Only | Print | Product List | Glossary On
Versions: 1 2 3 4 5 6 7 8 9 10 11 12 13 14 15 16 17 18 19 20 21 22
000
FTUS43 KLSX 290300 AAA
TAFUIN
TAF AMD
KUIN 290325Z 2903/2924 VRB03KT P6SM SCT020 SCT100
     FM290500 33005KT P6SM BKN020
     FM290900 33005KT 2SM BR BKN012
     FM291400 33009KT P6SM SCT030=

USA.gov is the U.S. government's official web portal to all federal, state and local government web resources and services.